KLCH/LCH METAR and TAF weather

Enter ICAO airport designator
Station Type Date Time Source
KLCH METAR 2019/06/17 04:43 UTC NOAA

KLCH 170443Z AUTO 05006KT 5SM RA BR SCT065 BKN090 OVC110 22/20 A2998 RMK AO2 LTG DSNT SW-N RAB19 P0002 T02220200 $


Station Type Date Time Source
KLCH Decoded METAR 2019/06/17 04:43 UTC NOAA

LAKE CHARLES REGIONAL AIRPORT , LA, United States (KLCH) 30-12N 093-23W 3M
Jun 17, 2019 - 12:43 AM EDT / 2019.06.17 0443 UTC
Wind: from the NE (050 degrees) at 7 MPH (6 KT):0
Visibility: 5 mile(s):0
Sky conditions: overcast
Weather: rain; mist; Lightning observed
Precipitation last hour: 0.02 inches
Temperature: 72.0 F (22.2 C)
Dew Point: 68.0 F (20.0 C)
Relative Humidity: 87%
Pressure (altimeter): 29.98 in. Hg (1015 hPa)
ob: KLCH 170443Z AUTO 05006KT 5SM RA BR SCT065 BKN090 OVC110 22/20 A2998 RMK AO2 LTG DSNT SW-N RAB19 P0002 T02220200
cycle: 4

Station Type Date Time Source
KLCH TAF 2019/06/17 04:48 UTC NOAA

TAF
AMD KLCH 170346Z 1704/1724 VRB06KT P6SM VCTS SCT025CB BKN040
TEMPO 1704/1708 3SM SHRA BKN025
FM170800 14006KT P6SM VCTS SCT025CB BKN040
FM171400 16008KT P6SM VCTS SCT025CB BKN040
TEMPO 1714/1718 3SM SHRA BKN025
FM171800 19010KT P6SM VCTS SCT025CB BKN040
TEMPO 1718/1722 3SM SHRA BKN025

Example: see airport list